sensor_id;sensor_type;location;lat;lon;timestamp;temperature;humidity
27200;DHT22;14714;48.106;11.546;2022-09-01T00:02:18;15.30;99.90
27200;DHT22;14714;48.106;11.546;2022-09-01T00:04:45;15.20;99.90
27200;DHT22;14714;48.106;11.546;2022-09-01T00:07:13;15.20;99.90
27200;DHT22;14714;48.106;11.546;2022-09-01T00:09:40;15.20;99.90
27200;DHT22;14714;48.106;11.546;2022-09-01T00:12:07;15.20;99.90
27200;DHT22;14714;48.106;11.546;2022-09-01T00:14:35;15.20;99.90
27200;DHT22;14714;48.106;11.546;2022-09-01T00:17:08;15.20;99.90
27200;DHT22;14714;48.106;11.546;2022-09-01T00:19:35;15.10;99.90
27200;DHT22;14714;48.106;11.546;2022-09-01T00:22:02;15.10;99.90
27200;DHT22;14714;48.106;11.546;2022-09-01T00:24:29;15.10;99.90
27200;DHT22;14714;48.106;11.546;2022-09-01T00:26:56;15.10;99.90
27200;DHT22;14714;48.106;11.546;2022-09-01T00:29:23;15.00;99.90
27200;DHT22;14714;48.106;11.546;2022-09-01T00:31:50;15.00;99.90
27200;DHT22;14714;48.106;11.546;2022-09-01T00:34:17;15.00;99.90
27200;DHT22;14714;48.106;11.546;2022-09-01T00:36:44;15.00;99.90
27200;DHT22;14714;48.106;11.546;2022-09-01T00:39:12;14.90;99.90
27200;DHT22;14714;48.106;11.546;2022-09-01T00:41:39;14.90;99.90
27200;DHT22;14714;48.106;11.546;2022-09-01T00:44:09;15.00;99.90
27200;DHT22;14714;48.106;11.546;2022-09-01T00:46:39;14.90;99.90
27200;DHT22;14714;48.106;11.546;2022-09-01T00:51:46;14.90;99.90
27200;DHT22;14714;48.106;11.546;2022-09-01T00:54:15;14.90;99.90
27200;DHT22;14714;48.106;11.546;2022-09-01T00:56:44;14.90;99.90
27200;DHT22;14714;48.106;11.546;2022-09-01T00:59:13;14.90;99.90
27200;DHT22;14714;48.106;11.546;2022-09-01T01:01:41;14.90;99.90
27200;DHT22;14714;48.106;11.546;2022-09-01T01:04:11;14.90;99.90
27200;DHT22;14714;48.106;11.546;2022-09-01T01:06:45;14.90;99.90
27200;DHT22;14714;48.106;11.546;2022-09-01T01:09:16;14.80;99.90
27200;DHT22;14714;48.106;11.546;2022-09-01T01:11:43;14.80;99.90
27200;DHT22;14714;48.106;11.546;2022-09-01T01:14:14;14.80;99.90
27200;DHT22;14714;48.106;11.546;2022-09-01T01:16:43;14.80;99.90
27200;DHT22;14714;48.106;11.546;2022-09-01T01:19:12;14.80;99.90
27200;DHT22;14714;48.106;11.546;2022-09-01T01:22:05;14.80;99.90
27200;DHT22;14714;48.106;11.546;2022-09-01T01:24:52;14.80;99.90
27200;DHT22;14714;48.106;11.546;2022-09-01T01:27:18;14.80;99.90
27200;DHT22;14714;48.106;11.546;2022-09-01T01:29:47;14.80;99.90
27200;DHT22;14714;48.106;11.546;2022-09-01T01:32:17;14.80;99.90
27200;DHT22;14714;48.106;11.546;2022-09-01T01:34:44;14.80;99.90
27200;DHT22;14714;48.106;11.546;2022-09-01T01:37:14;14.80;99.90
27200;DHT22;14714;48.106;11.546;2022-09-01T01:39:40;14.80;99.90
27200;DHT22;14714;48.106;11.546;2022-09-01T01:42:09;14.80;99.90
27200;DHT22;14714;48.106;11.546;2022-09-01T01:44:38;14.80;99.90
27200;DHT22;14714;48.106;11.546;2022-09-01T01:47:06;14.80;99.90
27200;DHT22;14714;48.106;11.546;2022-09-01T01:49:34;14.70;99.90
27200;DHT22;14714;48.106;11.546;2022-09-01T01:52:01;14.80;99.90
27200;DHT22;14714;48.106;11.546;2022-09-01T01:54:31;14.80;99.90
27200;DHT22;14714;48.106;11.546;2022-09-01T01:56:58;14.80;99.90
27200;DHT22;14714;48.106;11.546;2022-09-01T01:59:25;14.80;99.90
27200;DHT22;14714;48.106;11.546;2022-09-01T02:01:55;14.80;99.90
27200;DHT22;14714;48.106;11.546;2022-09-01T02:04:22;14.80;99.90
27200;DHT22;14714;48.106;11.546;2022-09-01T02:06:49;14.80;99.90
27200;DHT22;14714;48.106;11.546;2022-09-01T02:09:18;14.80;99.90
27200;DHT22;14714;48.106;11.546;2022-09-01T02:11:45;14.80;99.90
27200;DHT22;14714;48.106;11.546;2022-09-01T02:14:12;14.80;99.90
27200;DHT22;14714;48.106;11.546;2022-09-01T02:16:40;14.70;99.90
27200;DHT22;14714;48.106;11.546;2022-09-01T02:19:07;14.70;99.90
27200;DHT22;14714;48.106;11.546;2022-09-01T02:21:35;14.70;99.90
27200;DHT22;14714;48.106;11.546;2022-09-01T02:24:03;14.70;99.90
27200;DHT22;14714;48.106;11.546;2022-09-01T02:26:42;14.80;99.90
27200;DHT22;14714;48.106;11.546;2022-09-01T02:29:12;14.70;99.90
27200;DHT22;14714;48.106;11.546;2022-09-01T02:31:44;14.80;99.90
27200;DHT22;14714;48.106;11.546;2022-09-01T02:34:11;14.80;99.90
27200;DHT22;14714;48.106;11.546;2022-09-01T02:36:40;14.80;99.90
27200;DHT22;14714;48.106;11.546;2022-09-01T02:39:13;14.80;99.90
27200;DHT22;14714;48.106;11.546;2022-09-01T02:41:40;14.80;99.90
27200;DHT22;14714;48.106;11.546;2022-09-01T02:44:07;14.80;99.90
27200;DHT22;14714;48.106;11.546;2022-09-01T02:46:37;14.70;99.90
27200;DHT22;14714;48.106;11.546;2022-09-01T02:49:11;14.70;99.90
27200;DHT22;14714;48.106;11.546;2022-09-01T02:51:43;14.60;99.90
27200;DHT22;14714;48.106;11.546;2022-09-01T02:54:11;14.60;99.90
27200;DHT22;14714;48.106;11.546;2022-09-01T02:56:42;14.50;99.90
27200;DHT22;14714;48.106;11.546;2022-09-01T02:59:11;14.50;99.90
27200;DHT22;14714;48.106;11.546;2022-09-01T03:01:38;14.40;99.90
27200;DHT22;14714;48.106;11.546;2022-09-01T03:04:06;14.40;99.90
27200;DHT22;14714;48.106;11.546;2022-09-01T03:06:36;14.30;99.90
27200;DHT22;14714;48.106;11.546;2022-09-01T03:09:04;14.20;99.90
27200;DHT22;14714;48.106;11.546;2022-09-01T03:11:33;14.20;99.90
27200;DHT22;14714;48.106;11.546;2022-09-01T03:14:00;14.10;99.90
27200;DHT22;14714;48.106;11.546;2022-09-01T03:16:27;14.10;99.90
27200;DHT22;14714;48.106;11.546;2022-09-01T03:18:56;14.10;99.90
27200;DHT22;14714;48.106;11.546;2022-09-01T03:21:22;14.00;99.90
27200;DHT22;14714;48.106;11.546;2022-09-01T03:23:50;14.00;99.90
27200;DHT22;14714;48.106;11.546;2022-09-01T03:26:19;14.00;99.90
27200;DHT22;14714;48.106;11.546;2022-09-01T03:28:48;13.90;99.90
27200;DHT22;14714;48.106;11.546;2022-09-01T03:31:15;13.90;99.90
27200;DHT22;14714;48.106;11.546;2022-09-01T03:33:43;13.90;99.90
27200;DHT22;14714;48.106;11.546;2022-09-01T03:36:10;13.90;99.90
27200;DHT22;14714;48.106;11.546;2022-09-01T03:38:45;13.90;99.90
27200;DHT22;14714;48.106;11.546;2022-09-01T03:41:15;13.90;99.90
27200;DHT22;14714;48.106;11.546;2022-09-01T03:43:43;13.90;99.90
27200;DHT22;14714;48.106;11.546;2022-09-01T03:46:14;13.90;99.90
27200;DHT22;14714;48.106;11.546;2022-09-01T03:48:46;13.90;99.90
27200;DHT22;14714;48.106;11.546;2022-09-01T03:51:16;13.90;99.90
27200;DHT22;14714;48.106;11.546;2022-09-01T03:53:42;13.90;99.90
27200;DHT22;14714;48.106;11.546;2022-09-01T03:56:11;13.90;99.90
27200;DHT22;14714;48.106;11.546;2022-09-01T03:58:41;13.90;99.90
27200;DHT22;14714;48.106;11.546;2022-09-01T04:01:13;13.90;99.90
27200;DHT22;14714;48.106;11.546;2022-09-01T04:03:39;14.00;99.90
27200;DHT22;14714;48.106;11.546;2022-09-01T04:06:07;14.00;99.90
27200;DHT22;14714;48.106;11.546;2022-09-01T04:08:35;14.00;99.90
27200;DHT22;14714;48.106;11.546;2022-09-01T04:11:03;14.00;99.90
27200;DHT22;14714;48.106;11.546;2022-09-01T04:13:33;14.00;99.90
27200;DHT22;14714;48.106;11.546;2022-09-01T04:16:00;14.00;99.90
27200;DHT22;14714;48.106;11.546;2022-09-01T04:18:27;14.00;99.90
27200;DHT22;14714;48.106;11.546;2022-09-01T04:20:56;14.00;99.90
27200;DHT22;14714;48.106;11.546;2022-09-01T04:23:27;14.00;99.90
27200;DHT22;14714;48.106;11.546;2022-09-01T04:26:09;14.00;99.90
27200;DHT22;14714;48.106;11.546;2022-09-01T04:28:38;13.90;99.90
27200;DHT22;14714;48.106;11.546;2022-09-01T04:31:06;13.90;99.90
27200;DHT22;14714;48.106;11.546;2022-09-01T04:33:35;13.90;99.90
27200;DHT22;14714;48.106;11.546;2022-09-01T04:36:06;13.90;99.90
27200;DHT22;14714;48.106;11.546;2022-09-01T04:38:38;13.80;99.90
27200;DHT22;14714;48.106;11.546;2022-09-01T04:41:05;13.80;99.90
27200;DHT22;14714;48.106;11.546;2022-09-01T04:43:33;13.80;99.90
27200;DHT22;14714;48.106;11.546;2022-09-01T04:46:00;13.80;99.90
27200;DHT22;14714;48.106;11.546;2022-09-01T04:48:27;13.70;99.90
27200;DHT22;14714;48.106;11.546;2022-09-01T04:50:55;13.70;99.90
27200;DHT22;14714;48.106;11.546;2022-09-01T04:53:22;13.70;99.90
27200;DHT22;14714;48.106;11.546;2022-09-01T04:55:54;13.70;99.90
27200;DHT22;14714;48.106;11.546;2022-09-01T04:58:20;13.70;99.90
27200;DHT22;14714;48.106;11.546;2022-09-01T05:00:49;13.70;99.90
27200;DHT22;14714;48.106;11.546;2022-09-01T05:03:18;13.70;99.90
27200;DHT22;14714;48.106;11.546;2022-09-01T05:05:48;13.70;99.90
27200;DHT22;14714;48.106;11.546;2022-09-01T05:08:17;13.80;99.90
27200;DHT22;14714;48.106;11.546;2022-09-01T05:10:50;13.80;99.90
27200;DHT22;14714;48.106;11.546;2022-09-01T05:13:18;13.80;99.90
27200;DHT22;14714;48.106;11.546;2022-09-01T05:15:58;13.90;99.90
27200;DHT22;14714;48.106;11.546;2022-09-01T05:18:25;13.90;99.90
27200;DHT22;14714;48.106;11.546;2022-09-01T05:20:53;14.00;99.90
27200;DHT22;14714;48.106;11.546;2022-09-01T05:23:20;14.00;99.90
27200;DHT22;14714;48.106;11.546;2022-09-01T05:25:47;14.20;99.90
27200;DHT22;14714;48.106;11.546;2022-09-01T05:28:16;14.30;99.90
27200;DHT22;14714;48.106;11.546;2022-09-01T05:30:45;14.50;99.90
27200;DHT22;14714;48.106;11.546;2022-09-01T05:33:13;14.80;99.90
27200;DHT22;14714;48.106;11.546;2022-09-01T05:35:57;15.00;99.90
27200;DHT22;14714;48.106;11.546;2022-09-01T05:38:27;15.20;99.90
27200;DHT22;14714;48.106;11.546;2022-09-01T05:40:57;15.40;99.90
27200;DHT22;14714;48.106;11.546;2022-09-01T05:43:27;15.50;99.90
27200;DHT22;14714;48.106;11.546;2022-09-01T05:45:56;15.60;99.90
27200;DHT22;14714;48.106;11.546;2022-09-01T05:48:32;15.70;99.90
27200;DHT22;14714;48.106;11.546;2022-09-01T05:51:03;15.70;99.90
27200;DHT22;14714;48.106;11.546;2022-09-01T05:53:53;15.90;99.90
27200;DHT22;14714;48.106;11.546;2022-09-01T05:56:25;16.30;99.90
27200;DHT22;14714;48.106;11.546;2022-09-01T05:58:52;16.70;99.90
27200;DHT22;14714;48.106;11.546;2022-09-01T06:01:40;17.10;99.90
27200;DHT22;14714;48.106;11.546;2022-09-01T06:04:12;17.50;99.90
27200;DHT22;14714;48.106;11.546;2022-09-01T06:06:43;17.80;99.90
27200;DHT22;14714;48.106;11.546;2022-09-01T06:09:31;18.40;99.90
27200;DHT22;14714;48.106;11.546;2022-09-01T06:11:58;18.70;99.90
27200;DHT22;14714;48.106;11.546;2022-09-01T06:14:25;18.90;99.90
27200;DHT22;14714;48.106;11.546;2022-09-01T06:16:51;18.90;99.90
27200;DHT22;14714;48.106;11.546;2022-09-01T06:19:19;18.90;99.90
27200;DHT22;14714;48.106;11.546;2022-09-01T06:21:46;18.80;99.90
27200;DHT22;14714;48.106;11.546;2022-09-01T06:24:13;18.60;99.90
27200;DHT22;14714;48.106;11.546;2022-09-01T06:26:40;18.40;99.90
27200;DHT22;14714;48.106;11.546;2022-09-01T06:29:08;18.30;99.90
27200;DHT22;14714;48.106;11.546;2022-09-01T06:31:36;18.20;99.90
27200;DHT22;14714;48.106;11.546;2022-09-01T06:34:06;18.00;99.90
27200;DHT22;14714;48.106;11.546;2022-09-01T06:36:34;17.80;99.90
27200;DHT22;14714;48.106;11.546;2022-09-01T06:39:02;17.50;99.90
27200;DHT22;14714;48.106;11.546;2022-09-01T06:41:29;17.30;99.90
27200;DHT22;14714;48.106;11.546;2022-09-01T06:43:57;17.10;99.90
27200;DHT22;14714;48.106;11.546;2022-09-01T06:46:27;17.00;99.90
27200;DHT22;14714;48.106;11.546;2022-09-01T06:48:54;17.00;99.90
27200;DHT22;14714;48.106;11.546;2022-09-01T06:51:24;17.10;99.90
27200;DHT22;14714;48.106;11.546;2022-09-01T06:53:54;17.20;99.90
27200;DHT22;14714;48.106;11.546;2022-09-01T06:56:26;17.20;99.90
27200;DHT22;14714;48.106;11.546;2022-09-01T06:59:15;17.20;99.90
27200;DHT22;14714;48.106;11.546;2022-09-01T07:01:42;17.30;99.90
27200;DHT22;14714;48.106;11.546;2022-09-01T07:04:09;17.20;99.90
27200;DHT22;14714;48.106;11.546;2022-09-01T07:06:39;17.20;99.90
27200;DHT22;14714;48.106;11.546;2022-09-01T07:09:26;17.10;99.90
27200;DHT22;14714;48.106;11.546;2022-09-01T07:12:13;17.00;99.90
27200;DHT22;14714;48.106;11.546;2022-09-01T07:14:56;16.90;99.90
27200;DHT22;14714;48.106;11.546;2022-09-01T07:17:46;16.80;99.90
27200;DHT22;14714;48.106;11.546;2022-09-01T07:20:15;16.80;99.90
27200;DHT22;14714;48.106;11.546;2022-09-01T07:22:51;16.90;99.90
27200;DHT22;14714;48.106;11.546;2022-09-01T07:25:36;16.90;99.90
27200;DHT22;14714;48.106;11.546;2022-09-01T07:28:24;17.00;99.90
27200;DHT22;14714;48.106;11.546;2022-09-01T07:31:02;17.10;99.90
27200;DHT22;14714;48.106;11.546;2022-09-01T07:33:51;17.30;99.90
27200;DHT22;14714;48.106;11.546;2022-09-01T07:36:19;17.40;99.90
27200;DHT22;14714;48.106;11.546;2022-09-01T07:38:54;17.60;99.90
27200;DHT22;14714;48.106;11.546;2022-09-01T07:41:41;17.80;99.90
27200;DHT22;14714;48.106;11.546;2022-09-01T07:44:28;18.10;99.90
27200;DHT22;14714;48.106;11.546;2022-09-01T07:46:54;18.60;99.90
27200;DHT22;14714;48.106;11.546;2022-09-01T07:49:41;18.90;99.90
27200;DHT22;14714;48.106;11.546;2022-09-01T07:52:28;19.50;99.90
27200;DHT22;14714;48.106;11.546;2022-09-01T07:54:56;20.30;99.90
27200;DHT22;14714;48.106;11.546;2022-09-01T07:57:23;20.60;99.90
27200;DHT22;14714;48.106;11.546;2022-09-01T07:59:50;20.80;99.90
27200;DHT22;14714;48.106;11.546;2022-09-01T08:02:19;20.90;99.90
27200;DHT22;14714;48.106;11.546;2022-09-01T08:04:46;20.80;99.90
27200;DHT22;14714;48.106;11.546;2022-09-01T08:07:13;20.60;99.90
27200;DHT22;14714;48.106;11.546;2022-09-01T08:09:41;20.50;99.90
27200;DHT22;14714;48.106;11.546;2022-09-01T08:12:09;20.30;99.90
27200;DHT22;14714;48.106;11.546;2022-09-01T08:14:36;20.30;99.90
27200;DHT22;14714;48.106;11.546;2022-09-01T08:20:19;20.10;99.90
27200;DHT22;14714;48.106;11.546;2022-09-01T08:22:46;20.00;99.90
27200;DHT22;14714;48.106;11.546;2022-09-01T08:25:13;20.10;99.90
27200;DHT22;14714;48.106;11.546;2022-09-01T08:27:41;20.10;99.90
27200;DHT22;14714;48.106;11.546;2022-09-01T08:30:09;20.10;99.90
27200;DHT22;14714;48.106;11.546;2022-09-01T08:32:36;20.30;99.90
27200;DHT22;14714;48.106;11.546;2022-09-01T08:35:03;20.40;99.90
27200;DHT22;14714;48.106;11.546;2022-09-01T08:37:30;20.40;99.90
27200;DHT22;14714;48.106;11.546;2022-09-01T08:39:57;20.50;99.90
27200;DHT22;14714;48.106;11.546;2022-09-01T08:47:31;20.50;99.90
27200;DHT22;14714;48.106;11.546;2022-09-01T08:50:16;20.50;99.90
27200;DHT22;14714;48.106;11.546;2022-09-01T08:52:50;20.50;99.90
27200;DHT22;14714;48.106;11.546;2022-09-01T08:55:25;20.60;99.90
27200;DHT22;14714;48.106;11.546;2022-09-01T08:57:53;20.60;99.90
27200;DHT22;14714;48.106;11.546;2022-09-01T09:00:30;20.30;99.90
27200;DHT22;14714;48.106;11.546;2022-09-01T09:03:15;20.30;99.90
27200;DHT22;14714;48.106;11.546;2022-09-01T09:16:22;20.10;99.90
27200;DHT22;14714;48.106;11.546;2022-09-01T09:18:56;20.30;99.90
27200;DHT22;14714;48.106;11.546;2022-09-01T09:21:32;20.50;99.90
27200;DHT22;14714;48.106;11.546;2022-09-01T09:26:49;20.80;99.90
27200;DHT22;14714;48.106;11.546;2022-09-01T09:29:16;20.80;99.90
27200;DHT22;14714;48.106;11.546;2022-09-01T09:31:44;21.00;99.90
27200;DHT22;14714;48.106;11.546;2022-09-01T09:34:31;21.10;99.40
27200;DHT22;14714;48.106;11.546;2022-09-01T09:39:43;21.50;98.40
27200;DHT22;14714;48.106;11.546;2022-09-01T09:42:12;21.70;97.30
27200;DHT22;14714;48.106;11.546;2022-09-01T09:44:42;21.80;96.60
27200;DHT22;14714;48.106;11.546;2022-09-01T09:47:14;21.60;96.50
27200;DHT22;14714;48.106;11.546;2022-09-01T09:52:36;21.60;96.10
27200;DHT22;14714;48.106;11.546;2022-09-01T09:55:04;21.70;94.10
27200;DHT22;14714;48.106;11.546;2022-09-01T09:57:32;21.70;94.70
27200;DHT22;14714;48.106;11.546;2022-09-01T10:00:15;21.60;93.70
27200;DHT22;14714;48.106;11.546;2022-09-01T10:02:44;21.70;94.30
27200;DHT22;14714;48.106;11.546;2022-09-01T10:07:44;22.40;92.50
27200;DHT22;14714;48.106;11.546;2022-09-01T10:12:51;22.70;90.20
27200;DHT22;14714;48.106;11.546;2022-09-01T10:15:19;23.00;88.30
27200;DHT22;14714;48.106;11.546;2022-09-01T10:17:46;23.30;86.70
27200;DHT22;14714;48.106;11.546;2022-09-01T10:20:16;23.90;83.50
27200;DHT22;14714;48.106;11.546;2022-09-01T10:22:44;24.70;81.50
27200;DHT22;14714;48.106;11.546;2022-09-01T10:25:20;25.50;77.10
27200;DHT22;14714;48.106;11.546;2022-09-01T10:27:51;26.40;71.80
27200;DHT22;14714;48.106;11.546;2022-09-01T10:30:20;26.70;66.40
27200;DHT22;14714;48.106;11.546;2022-09-01T10:32:48;26.40;63.80
27200;DHT22;14714;48.106;11.546;2022-09-01T10:35:28;25.50;66.80
27200;DHT22;14714;48.106;11.546;2022-09-01T10:37:56;24.40;69.10
27200;DHT22;14714;48.106;11.546;2022-09-01T10:42:58;23.10;75.40
27200;DHT22;14714;48.106;11.546;2022-09-01T10:48:20;23.60;75.50
27200;DHT22;14714;48.106;11.546;2022-09-01T10:53:53;25.00;73.40
27200;DHT22;14714;48.106;11.546;2022-09-01T10:56:25;25.30;70.10
27200;DHT22;14714;48.106;11.546;2022-09-01T11:10:11;24.30;73.80
27200;DHT22;14714;48.106;11.546;2022-09-01T11:18:01;24.80;66.20
27200;DHT22;14714;48.106;11.546;2022-09-01T11:20:30;24.80;66.00
27200;DHT22;14714;48.106;11.546;2022-09-01T11:23:10;24.80;68.70
27200;DHT22;14714;48.106;11.546;2022-09-01T11:36:53;24.70;64.90
27200;DHT22;14714;48.106;11.546;2022-09-01T11:42:19;24.70;65.50
27200;DHT22;14714;48.106;11.546;2022-09-01T11:44:27;24.80;64.30
27200;DHT22;14714;48.106;11.546;2022-09-01T11:47:04;24.80;64.80
27200;DHT22;14714;48.106;11.546;2022-09-01T11:49:44;24.60;64.20
27200;DHT22;14714;48.106;11.546;2022-09-01T11:52:15;24.10;65.60
27200;DHT22;14714;48.106;11.546;2022-09-01T11:54:42;23.60;67.30
27200;DHT22;14714;48.106;11.546;2022-09-01T11:57:19;23.40;69.80
27200;DHT22;14714;48.106;11.546;2022-09-01T11:59:47;23.30;70.80
27200;DHT22;14714;48.106;11.546;2022-09-01T12:02:17;23.30;70.30
27200;DHT22;14714;48.106;11.546;2022-09-01T12:04:44;23.10;70.10
27200;DHT22;14714;48.106;11.546;2022-09-01T12:07:13;22.80;69.90
27200;DHT22;14714;48.106;11.546;2022-09-01T12:09:48;22.40;69.60
27200;DHT22;14714;48.106;11.546;2022-09-01T12:12:48;22.00;71.90
27200;DHT22;14714;48.106;11.546;2022-09-01T12:17:45;21.50;74.80
27200;DHT22;14714;48.106;11.546;2022-09-01T12:20:26;21.40;73.00
27200;DHT22;14714;48.106;11.546;2022-09-01T12:22:55;21.30;78.50
27200;DHT22;14714;48.106;11.546;2022-09-01T12:25:24;21.30;74.70
27200;DHT22;14714;48.106;11.546;2022-09-01T12:27:52;21.10;75.20
27200;DHT22;14714;48.106;11.546;2022-09-01T12:30:19;21.20;74.70
27200;DHT22;14714;48.106;11.546;2022-09-01T12:32:45;21.30;77.50
27200;DHT22;14714;48.106;11.546;2022-09-01T12:35:14;21.60;76.50
27200;DHT22;14714;48.106;11.546;2022-09-01T12:37:43;21.90;79.50
27200;DHT22;14714;48.106;11.546;2022-09-01T12:40:20;22.20;72.80
27200;DHT22;14714;48.106;11.546;2022-09-01T12:42:48;22.50;73.10
27200;DHT22;14714;48.106;11.546;2022-09-01T12:45:34;22.60;72.70
27200;DHT22;14714;48.106;11.546;2022-09-01T12:48:01;22.60;70.40
27200;DHT22;14714;48.106;11.546;2022-09-01T12:52:59;22.40;73.50
27200;DHT22;14714;48.106;11.546;2022-09-01T12:55:28;22.20;71.60
27200;DHT22;14714;48.106;11.546;2022-09-01T12:58:19;22.10;72.50
27200;DHT22;14714;48.106;11.546;2022-09-01T13:04:04;22.00;71.70
27200;DHT22;14714;48.106;11.546;2022-09-01T13:06:29;21.90;72.20
27200;DHT22;14714;48.106;11.546;2022-09-01T13:08:55;21.90;72.90
27200;DHT22;14714;48.106;11.546;2022-09-01T13:11:22;22.00;72.20
27200;DHT22;14714;48.106;11.546;2022-09-01T13:13:49;22.20;73.90
27200;DHT22;14714;48.106;11.546;2022-09-01T13:16:16;22.40;73.90
27200;DHT22;14714;48.106;11.546;2022-09-01T13:18:43;22.50;75.10
27200;DHT22;14714;48.106;11.546;2022-09-01T13:21:30;22.40;71.20
27200;DHT22;14714;48.106;11.546;2022-09-01T13:23:57;22.10;73.30
27200;DHT22;14714;48.106;11.546;2022-09-01T13:26:24;21.90;72.60
27200;DHT22;14714;48.106;11.546;2022-09-01T13:28:51;21.70;73.90
27200;DHT22;14714;48.106;11.546;2022-09-01T13:31:19;21.40;74.90
27200;DHT22;14714;48.106;11.546;2022-09-01T13:34:01;21.20;76.90
27200;DHT22;14714;48.106;11.546;2022-09-01T13:36:36;21.00;78.20
27200;DHT22;14714;48.106;11.546;2022-09-01T13:39:17;20.90;78.00
27200;DHT22;14714;48.106;11.546;2022-09-01T13:41:45;20.70;80.00
27200;DHT22;14714;48.106;11.546;2022-09-01T13:44:12;20.70;80.10
27200;DHT22;14714;48.106;11.546;2022-09-01T13:46:39;20.70;78.10
27200;DHT22;14714;48.106;11.546;2022-09-01T13:49:27;20.80;77.70
27200;DHT22;14714;48.106;11.546;2022-09-01T13:52:13;20.80;76.40
27200;DHT22;14714;48.106;11.546;2022-09-01T13:54:40;20.80;77.20
27200;DHT22;14714;48.106;11.546;2022-09-01T13:57:09;20.80;75.40
27200;DHT22;14714;48.106;11.546;2022-09-01T13:59:37;20.80;76.70
27200;DHT22;14714;48.106;11.546;2022-09-01T14:02:04;20.80;77.00
27200;DHT22;14714;48.106;11.546;2022-09-01T14:04:31;20.70;75.50
27200;DHT22;14714;48.106;11.546;2022-09-01T14:06:58;20.70;76.20
27200;DHT22;14714;48.106;11.546;2022-09-01T14:09:25;20.70;76.60
27200;DHT22;14714;48.106;11.546;2022-09-01T14:11:52;20.80;74.80
27200;DHT22;14714;48.106;11.546;2022-09-01T14:14:19;20.70;76.70
27200;DHT22;14714;48.106;11.546;2022-09-01T14:16:46;20.70;76.10
27200;DHT22;14714;48.106;11.546;2022-09-01T14:19:13;20.50;76.60
27200;DHT22;14714;48.106;11.546;2022-09-01T14:21:42;20.40;78.20
27200;DHT22;14714;48.106;11.546;2022-09-01T14:24:11;20.30;79.30
27200;DHT22;14714;48.106;11.546;2022-09-01T14:26:39;20.20;79.70
27200;DHT22;14714;48.106;11.546;2022-09-01T14:29:06;20.10;80.70
27200;DHT22;14714;48.106;11.546;2022-09-01T14:31:33;20.10;80.30
27200;DHT22;14714;48.106;11.546;2022-09-01T14:34:01;20.00;80.30
27200;DHT22;14714;48.106;11.546;2022-09-01T14:36:29;20.00;82.60
27200;DHT22;14714;48.106;11.546;2022-09-01T14:38:56;20.00;81.70
27200;DHT22;14714;48.106;11.546;2022-09-01T14:41:24;20.00;81.30
27200;DHT22;14714;48.106;11.546;2022-09-01T14:43:53;20.00;80.00
27200;DHT22;14714;48.106;11.546;2022-09-01T14:46:24;20.00;81.60
27200;DHT22;14714;48.106;11.546;2022-09-01T14:48:50;20.00;78.80
27200;DHT22;14714;48.106;11.546;2022-09-01T14:51:19;20.00;79.40
27200;DHT22;14714;48.106;11.546;2022-09-01T14:53:48;20.00;80.20
27200;DHT22;14714;48.106;11.546;2022-09-01T14:56:15;20.00;79.90
27200;DHT22;14714;48.106;11.546;2022-09-01T14:58:44;20.00;80.90
27200;DHT22;14714;48.106;11.546;2022-09-01T15:01:16;20.00;79.10
27200;DHT22;14714;48.106;11.546;2022-09-01T15:04:00;20.00;78.20
27200;DHT22;14714;48.106;11.546;2022-09-01T15:06:27;20.00;75.30
27200;DHT22;14714;48.106;11.546;2022-09-01T15:08:53;20.00;74.70
27200;DHT22;14714;48.106;11.546;2022-09-01T15:11:20;20.00;72.80
27200;DHT22;14714;48.106;11.546;2022-09-01T15:13:47;19.90;72.70
27200;DHT22;14714;48.106;11.546;2022-09-01T15:16:19;19.90;70.10
27200;DHT22;14714;48.106;11.546;2022-09-01T15:18:46;19.90;69.20
27200;DHT22;14714;48.106;11.546;2022-09-01T15:21:23;19.90;68.40
27200;DHT22;14714;48.106;11.546;2022-09-01T15:23:51;19.90;69.10
27200;DHT22;14714;48.106;11.546;2022-09-01T15:26:19;19.80;71.10
27200;DHT22;14714;48.106;11.546;2022-09-01T15:28:47;19.80;70.30
27200;DHT22;14714;48.106;11.546;2022-09-01T15:31:14;19.80;71.20
27200;DHT22;14714;48.106;11.546;2022-09-01T15:33:42;19.80;71.60
27200;DHT22;14714;48.106;11.546;2022-09-01T15:36:13;19.80;72.80
27200;DHT22;14714;48.106;11.546;2022-09-01T15:38:40;19.80;73.80
27200;DHT22;14714;48.106;11.546;2022-09-01T15:41:07;19.80;74.80
27200;DHT22;14714;48.106;11.546;2022-09-01T15:43:34;19.80;75.50
27200;DHT22;14714;48.106;11.546;2022-09-01T15:46:02;19.90;76.00
27200;DHT22;14714;48.106;11.546;2022-09-01T15:48:29;19.90;76.80
27200;DHT22;14714;48.106;11.546;2022-09-01T15:51:25;19.90;76.00
27200;DHT22;14714;48.106;11.546;2022-09-01T15:53:57;19.90;75.70
27200;DHT22;14714;48.106;11.546;2022-09-01T15:56:24;20.00;74.70
27200;DHT22;14714;48.106;11.546;2022-09-01T15:58:51;20.00;74.40
27200;DHT22;14714;48.106;11.546;2022-09-01T16:01:34;20.00;74.60
27200;DHT22;14714;48.106;11.546;2022-09-01T16:04:02;19.90;72.40
27200;DHT22;14714;48.106;11.546;2022-09-01T16:06:31;19.80;72.50
27200;DHT22;14714;48.106;11.546;2022-09-01T16:08:58;19.70;73.10
27200;DHT22;14714;48.106;11.546;2022-09-01T16:11:25;19.50;73.20
27200;DHT22;14714;48.106;11.546;2022-09-01T16:13:52;19.40;73.30
27200;DHT22;14714;48.106;11.546;2022-09-01T16:24:07;19.20;75.30
27200;DHT22;14714;48.106;11.546;2022-09-01T16:26:34;19.20;75.50
27200;DHT22;14714;48.106;11.546;2022-09-01T16:29:03;19.10;75.40
27200;DHT22;14714;48.106;11.546;2022-09-01T16:31:33;19.10;75.50
27200;DHT22;14714;48.106;11.546;2022-09-01T16:34:11;19.10;75.40
27200;DHT22;14714;48.106;11.546;2022-09-01T16:39:30;19.10;76.10
27200;DHT22;14714;48.106;11.546;2022-09-01T16:49:47;18.90;75.60
27200;DHT22;14714;48.106;11.546;2022-09-01T16:52:26;18.90;76.00
27200;DHT22;14714;48.106;11.546;2022-09-01T16:57:53;18.90;76.30
27200;DHT22;14714;48.106;11.546;2022-09-01T17:00:28;18.80;77.40
27200;DHT22;14714;48.106;11.546;2022-09-01T17:05:27;18.70;77.80
27200;DHT22;14714;48.106;11.546;2022-09-01T17:10:45;18.60;78.80
27200;DHT22;14714;48.106;11.546;2022-09-01T17:13:28;18.50;78.70
27200;DHT22;14714;48.106;11.546;2022-09-01T17:16:02;18.50;80.00
27200;DHT22;14714;48.106;11.546;2022-09-01T17:18:33;18.40;80.00
27200;DHT22;14714;48.106;11.546;2022-09-01T17:21:25;18.40;79.60
27200;DHT22;14714;48.106;11.546;2022-09-01T17:23:51;18.30;80.00
27200;DHT22;14714;48.106;11.546;2022-09-01T17:26:20;18.20;80.40